Time;durP1;ratioP1;P1;durP2;ratioP2;P2;SDS_P1;SDS_P2;PMS_P1;PMS_P2;Temp;Humidity;BMP_temperature;BMP_pressure;BME280_temperature;BME280_humidity;BME280_pressure;Samples;Min_cycle;Max_cycle;Signal;HPM_P1;HPM_P2
2021/12/31 00:01:05;;;;;;;13.73;3.45;;;13.10;99.90;;;;;;5016894;28;20049;-82
2021/12/31 00:03:31;;;;;;;15.95;2.85;;;13.10;99.90;;;;;;5033603;28;20038;-82
2021/12/31 00:05:56;;;;;;;24.40;3.30;;;13.10;99.90;;;;;;5049818;28;20041;-82
2021/12/31 00:08:22;;;;;;;19.48;3.70;;;13.10;99.90;;;;;;5016819;28;20041;-82
2021/12/31 00:10:48;;;;;;;15.95;3.40;;;13.10;99.90;;;;;;5033193;28;20072;-82
2021/12/31 00:13:14;;;;;;;17.92;3.70;;;13.10;99.90;;;;;;5032452;28;20141;-82
2021/12/31 00:15:39;;;;;;;21.38;3.70;;;13.10;99.90;;;;;;5033062;28;20041;-82
2021/12/31 00:18:05;;;;;;;24.50;4.95;;;13.10;99.90;;;;;;5032906;28;20052;-82
2021/12/31 00:20:32;;;;;;;21.85;4.38;;;13.10;99.90;;;;;;5032870;28;20049;-82
2021/12/31 00:23:05;;;;;;;21.85;4.13;;;13.10;99.90;;;;;;5049294;28;20404;-82
2021/12/31 00:25:33;;;;;;;23.30;3.72;;;13.10;99.90;;;;;;5049790;28;20099;-82
2021/12/31 00:27:59;;;;;;;23.27;4.88;;;13.00;99.90;;;;;;5032612;28;20136;-82
2021/12/31 00:30:25;;;;;;;25.67;4.20;;;12.90;99.90;;;;;;5032926;28;20180;-82
2021/12/31 00:32:50;;;;;;;25.35;4.22;;;12.90;99.90;;;;;;5049243;28;20091;-82
2021/12/31 00:35:17;;;;;;;20.95;4.47;;;12.90;99.90;;;;;;5049481;28;20047;-82
2021/12/31 00:37:43;;;;;;;18.98;4.45;;;12.90;99.90;;;;;;5032850;28;20049;-82
2021/12/31 00:40:13;;;;;;;27.23;4.25;;;12.90;99.90;;;;;;5049850;28;20136;-82
2021/12/31 00:42:39;;;;;;;22.83;3.90;;;12.80;99.90;;;;;;5031785;28;20091;-82
2021/12/31 00:45:08;;;;;;;17.50;3.55;;;12.90;99.90;;;;;;5049259;28;20096;-82
2021/12/31 00:47:33;;;;;;;30.63;4.60;;;12.80;99.90;;;;;;5016168;28;20041;-82
2021/12/31 00:49:59;;;;;;;21.80;3.65;;;12.80;99.90;;;;;;5032693;28;20103;-82
2021/12/31 00:52:25;;;;;;;20.45;3.80;;;12.80;99.90;;;;;;5049070;28;20504;-82
2021/12/31 00:54:51;;;;;;;25.90;4.45;;;12.80;99.90;;;;;;5016218;28;20113;-80
2021/12/31 00:57:17;;;;;;;23.45;3.83;;;12.70;99.90;;;;;;5013342;28;20061;-80
2021/12/31 00:59:42;;;;;;;22.13;3.78;;;12.80;99.90;;;;;;5014203;28;20045;-80
2021/12/31 01:02:11;;;;;;;26.88;4.53;;;12.80;99.90;;;;;;5032463;28;20056;-80
2021/12/31 01:04:38;;;;;;;24.30;3.92;;;12.80;99.90;;;;;;5016583;28;20089;-80
2021/12/31 01:07:03;;;;;;;24.00;4.43;;;12.80;99.90;;;;;;5032467;28;20045;-82
2021/12/31 01:09:31;;;;;;;23.70;3.65;;;12.80;99.90;;;;;;5032450;28;20041;-82
2021/12/31 01:11:57;;;;;;;23.30;3.90;;;12.80;99.90;;;;;;5031856;28;20053;-82
2021/12/31 01:14:35;;;;;;;28.08;4.20;;;12.70;99.90;;;;;;5000347;28;20041;-82
2021/12/31 01:17:04;;;;;;;26.88;3.65;;;12.80;99.90;;;;;;5032569;28;20140;-82
2021/12/31 01:19:46;;;;;;;22.13;4.05;;;12.70;99.90;;;;;;5032355;28;20064;-82
2021/12/31 01:22:30;;;;;;;29.55;4.55;;;12.70;99.90;;;;;;5018213;28;20042;-82
2021/12/31 01:24:57;;;;;;;32.72;4.57;;;12.70;99.90;;;;;;5032817;28;20425;-82
2021/12/31 01:27:22;;;;;;;24.27;4.13;;;12.70;99.90;;;;;;5032306;28;20067;-82
2021/12/31 01:29:48;;;;;;;22.05;3.92;;;12.70;99.90;;;;;;5032295;28;20132;-82
2021/12/31 01:32:14;;;;;;;23.35;3.88;;;12.60;99.90;;;;;;5015900;28;20095;-82
2021/12/31 01:34:41;;;;;;;25.23;4.15;;;12.60;99.90;;;;;;5032288;28;20085;-82
2021/12/31 01:37:08;;;;;;;26.90;4.57;;;12.60;99.90;;;;;;5015688;28;20448;-82
2021/12/31 01:39:34;;;;;;;27.13;4.07;;;12.70;99.90;;;;;;5034017;28;20054;-82
2021/12/31 01:42:02;;;;;;;22.85;4.07;;;12.70;99.90;;;;;;5035205;28;20045;-80
2021/12/31 01:44:43;;;;;;;27.83;4.03;;;12.70;99.90;;;;;;5035886;28;20051;-80
2021/12/31 01:47:15;;;;;;;23.48;4.05;;;12.80;99.90;;;;;;5035982;28;20048;-80
2021/12/31 01:49:54;;;;;;;24.35;3.70;;;12.80;99.90;;;;;;5036205;28;20103;-80
2021/12/31 01:52:21;;;;;;;24.70;3.83;;;12.70;99.90;;;;;;5036603;28;20385;-81
2021/12/31 01:54:47;;;;;;;26.77;5.28;;;12.80;99.90;;;;;;5035725;28;20128;-79
2021/12/31 01:57:13;;;;;;;23.88;3.85;;;12.70;99.90;;;;;;5018897;28;20140;-80
2021/12/31 01:59:42;;;;;;;29.15;4.15;;;12.70;99.90;;;;;;5035624;28;20045;-80
2021/12/31 02:02:09;;;;;;;25.05;3.80;;;12.70;99.90;;;;;;5035316;28;20068;-81
2021/12/31 02:04:38;;;;;;;21.83;4.03;;;12.80;99.90;;;;;;5035605;28;20072;-80
2021/12/31 02:07:04;;;;;;;32.53;4.63;;;12.70;99.90;;;;;;5035555;28;20503;-80
2021/12/31 02:09:35;;;;;;;20.75;3.58;;;12.70;99.90;;;;;;5035350;28;20156;-80
2021/12/31 02:12:01;;;;;;;26.50;3.80;;;12.80;99.90;;;;;;5035148;28;20046;-80
2021/12/31 02:14:28;;;;;;;22.13;3.88;;;12.80;99.90;;;;;;5035320;28;20448;-80
2021/12/31 02:16:54;;;;;;;20.83;3.70;;;12.80;99.90;;;;;;5018637;28;20049;-81
2021/12/31 02:19:27;;;;;;;31.13;4.80;;;12.90;99.90;;;;;;5035038;28;20049;-81
2021/12/31 02:21:56;;;;;;;24.38;4.38;;;12.90;99.90;;;;;;5036029;28;20429;-80
2021/12/31 02:24:23;;;;;;;29.45;5.30;;;12.80;99.90;;;;;;5019388;28;20041;-80
2021/12/31 02:26:50;;;;;;;24.42;3.95;;;12.80;99.90;;;;;;5035105;28;20049;-80
2021/12/31 02:29:16;;;;;;;22.35;4.57;;;12.80;99.90;;;;;;5035134;28;20049;-80
2021/12/31 02:31:42;;;;;;;19.83;4.03;;;12.90;99.90;;;;;;5035034;28;20045;-80
2021/12/31 02:34:08;;;;;;;16.95;4.07;;;12.90;99.90;;;;;;5018968;28;20041;-80
2021/12/31 02:36:33;;;;;;;19.13;3.60;;;12.90;99.90;;;;;;5034646;28;20390;-80
2021/12/31 02:38:59;;;;;;;19.02;4.03;;;12.90;99.90;;;;;;5034538;28;20088;-80
2021/12/31 02:41:25;;;;;;;20.95;4.80;;;13.00;99.90;;;;;;5034102;28;20079;-80
2021/12/31 02:43:51;;;;;;;21.80;4.07;;;13.00;99.90;;;;;;5034900;28;20139;-80
2021/12/31 02:46:16;;;;;;;18.33;3.78;;;13.00;99.90;;;;;;5034569;28;20518;-80
2021/12/31 02:48:43;;;;;;;19.65;3.80;;;13.00;99.90;;;;;;5034704;28;20090;-81
2021/12/31 02:51:09;;;;;;;20.05;3.60;;;13.10;99.90;;;;;;5034384;28;20400;-81
2021/12/31 02:53:39;;;;;;;22.90;3.42;;;13.10;99.90;;;;;;5035075;28;20038;-80
2021/12/31 02:56:10;;;;;;;22.40;4.07;;;13.10;99.90;;;;;;5034279;28;20057;-80
2021/12/31 02:58:37;;;;;;;16.30;3.63;;;13.10;99.90;;;;;;5018115;28;20140;-80
2021/12/31 03:01:04;;;;;;;19.27;3.97;;;13.10;99.90;;;;;;5034537;28;20048;-80
2021/12/31 03:03:32;;;;;;;19.58;3.28;;;13.20;99.90;;;;;;5034462;28;20045;-80
2021/12/31 03:05:59;;;;;;;17.80;3.45;;;13.10;99.90;;;;;;5034443;28;20183;-80
2021/12/31 03:08:31;;;;;;;13.60;3.38;;;13.10;99.90;;;;;;5017998;28;20053;-80
2021/12/31 03:11:00;;;;;;;18.95;3.65;;;13.20;99.90;;;;;;5034362;28;20428;-80
2021/12/31 03:13:28;;;;;;;15.20;3.00;;;13.20;99.90;;;;;;5033900;28;20092;-80
2021/12/31 03:15:54;;;;;;;16.58;3.00;;;13.20;99.90;;;;;;5017840;28;20049;-80
2021/12/31 03:18:21;;;;;;;15.07;3.22;;;13.20;99.90;;;;;;5033982;28;20547;-80
2021/12/31 03:20:57;;;;;;;13.32;3.25;;;13.20;99.90;;;;;;5034184;28;20049;-81
2021/12/31 03:23:28;;;;;;;14.70;3.88;;;13.20;99.90;;;;;;5019211;28;20080;-80
2021/12/31 03:25:54;;;;;;;16.80;3.47;;;13.20;99.90;;;;;;5034264;28;20033;-80
2021/12/31 03:28:20;;;;;;;16.38;3.25;;;13.30;99.90;;;;;;5034078;28;20045;-80
2021/12/31 03:30:47;;;;;;;14.35;3.05;;;13.30;99.90;;;;;;5033991;28;20431;-80
2021/12/31 03:33:13;;;;;;;11.10;2.83;;;13.30;99.90;;;;;;5033401;28;20095;-80
2021/12/31 03:35:39;;;;;;;13.35;3.13;;;13.30;99.90;;;;;;5033374;28;20095;-80
2021/12/31 03:38:05;;;;;;;13.52;2.80;;;13.30;99.90;;;;;;5033685;28;20081;-80
2021/12/31 03:40:30;;;;;;;9.88;3.13;;;13.30;99.90;;;;;;5017805;28;20050;-80
2021/12/31 03:42:56;;;;;;;14.48;3.13;;;13.30;99.90;;;;;;5033382;28;20140;-80
2021/12/31 03:45:22;;;;;;;11.65;2.85;;;13.30;99.90;;;;;;5033727;28;20061;-80
2021/12/31 03:47:47;;;;;;;15.45;3.47;;;13.30;99.90;;;;;;5016888;28;20132;-80
2021/12/31 03:50:13;;;;;;;13.45;3.75;;;13.30;99.90;;;;;;5000798;28;20049;-80
2021/12/31 03:52:39;;;;;;;9.82;2.90;;;13.20;99.90;;;;;;5033679;28;20546;-80
2021/12/31 03:55:10;;;;;;;19.45;3.90;;;13.20;99.90;;;;;;5017149;28;20064;-80
2021/12/31 03:57:37;;;;;;;14.65;2.97;;;13.30;99.90;;;;;;5032749;28;20053;-80
2021/12/31 04:00:05;;;;;;;15.95;3.08;;;13.30;99.90;;;;;;5033366;28;20183;-80
2021/12/31 04:02:31;;;;;;;11.32;2.70;;;13.30;99.90;;;;;;5032697;28;20056;-81
2021/12/31 04:04:57;;;;;;;12.93;2.67;;;13.30;99.90;;;;;;5033297;28;20046;-80
2021/12/31 04:07:23;;;;;;;16.05;2.55;;;13.20;99.90;;;;;;5033266;28;20045;-80
2021/12/31 04:09:49;;;;;;;13.73;2.90;;;13.30;99.90;;;;;;5016773;28;20124;-80
2021/12/31 04:12:15;;;;;;;15.80;2.55;;;13.20;99.90;;;;;;5016231;28;20049;-81
2021/12/31 04:14:41;;;;;;;12.00;3.03;;;13.20;99.90;;;;;;5032970;28;20468;-80
2021/12/31 04:17:07;;;;;;;14.10;2.20;;;13.20;99.90;;;;;;5016708;28;20068;-80
2021/12/31 04:19:32;;;;;;;15.15;2.97;;;13.20;99.90;;;;;;5033699;28;20057;-80
2021/12/31 04:21:58;;;;;;;11.20;2.42;;;13.20;99.90;;;;;;5033065;28;20045;-80
2021/12/31 04:24:40;;;;;;;8.40;2.33;;;13.30;99.90;;;;;;5033024;28;20408;-80
2021/12/31 04:27:06;;;;;;;18.85;2.40;;;13.20;99.90;;;;;;5017082;28;20049;-80
2021/12/31 04:29:32;;;;;;;12.55;3.00;;;13.20;99.90;;;;;;5016649;28;20439;-80
2021/12/31 04:31:57;;;;;;;14.18;3.00;;;13.20;99.90;;;;;;5032974;28;20045;-80
2021/12/31 04:34:23;;;;;;;10.77;2.92;;;13.20;99.90;;;;;;4999924;28;20064;-80
2021/12/31 04:36:49;;;;;;;21.17;3.20;;;13.20;99.90;;;;;;5033012;28;20099;-80
2021/12/31 04:39:15;;;;;;;12.07;2.13;;;13.30;99.90;;;;;;5032433;28;20049;-80
2021/12/31 04:41:40;;;;;;;13.55;2.90;;;13.30;99.90;;;;;;5016048;28;20125;-80
2021/12/31 04:44:06;;;;;;;13.27;2.47;;;13.30;99.90;;;;;;5032844;28;20056;-80
2021/12/31 04:46:32;;;;;;;14.43;2.70;;;13.30;99.90;;;;;;5016387;28;20088;-80
2021/12/31 04:48:57;;;;;;;15.68;2.53;;;13.30;99.90;;;;;;5016551;28;20396;-80
2021/12/31 04:51:23;;;;;;;12.43;2.40;;;13.30;99.90;;;;;;5032798;28;20385;-79
2021/12/31 04:53:49;;;;;;;14.18;2.67;;;13.30;99.90;;;;;;5016342;28;20054;-80
2021/12/31 04:56:14;;;;;;;12.80;2.78;;;13.40;99.90;;;;;;5032795;28;20104;-80
2021/12/31 04:58:40;;;;;;;13.18;2.45;;;13.30;99.90;;;;;;5032431;28;20057;-80
2021/12/31 05:01:06;;;;;;;7.68;2.53;;;13.40;99.90;;;;;;5032450;28;20072;-80
2021/12/31 05:03:31;;;;;;;14.25;2.53;;;13.40;99.90;;;;;;5016093;28;20048;-80
2021/12/31 05:05:57;;;;;;;9.05;2.63;;;13.50;99.90;;;;;;5016135;28;20400;-80
2021/12/31 05:08:23;;;;;;;14.65;2.75;;;13.50;99.90;;;;;;5032569;28;20373;-80
2021/12/31 05:10:48;;;;;;;10.43;3.13;;;13.50;99.90;;;;;;5032574;28;20053;-80
2021/12/31 05:13:15;;;;;;;9.63;2.20;;;13.50;99.90;;;;;;5033350;28;20077;-80
2021/12/31 05:15:46;;;;;;;8.50;2.60;;;13.40;99.90;;;;;;5036693;28;20057;-81
2021/12/31 05:18:13;;;;;;;11.60;2.88;;;13.30;99.90;;;;;;5036224;28;20469;-81
2021/12/31 05:20:39;;;;;;;12.60;3.10;;;13.30;99.90;;;;;;5036361;28;20472;-81
2021/12/31 05:23:05;;;;;;;8.35;2.70;;;13.30;99.90;;;;;;5036314;28;20046;-81
2021/12/31 05:25:31;;;;;;;10.35;3.17;;;13.20;99.90;;;;;;5036336;28;20115;-81
2021/12/31 05:27:56;;;;;;;8.65;2.80;;;13.30;99.90;;;;;;5036799;28;20077;-80
2021/12/31 05:30:22;;;;;;;11.40;3.40;;;13.20;99.90;;;;;;5020106;28;20485;-81
2021/12/31 05:32:48;;;;;;;9.00;2.95;;;13.20;99.90;;;;;;5036198;28;20045;-81
2021/12/31 05:35:14;;;;;;;11.73;3.47;;;13.20;99.90;;;;;;5019639;28;20065;-81
2021/12/31 05:37:40;;;;;;;13.07;3.63;;;13.30;99.90;;;;;;5019589;28;20492;-80
2021/12/31 05:40:06;;;;;;;10.85;3.83;;;13.30;99.90;;;;;;5035992;28;20128;-80
2021/12/31 05:42:32;;;;;;;7.70;3.17;;;13.30;99.90;;;;;;5035265;28;20165;-81
2021/12/31 05:44:58;;;;;;;9.48;3.00;;;13.30;99.90;;;;;;5019172;28;20081;-80
2021/12/31 05:47:24;;;;;;;9.40;3.75;;;13.30;99.90;;;;;;5019137;28;20056;-81
2021/12/31 05:49:50;;;;;;;9.45;3.60;;;13.40;99.90;;;;;;5036034;28;20045;-80
2021/12/31 05:52:16;;;;;;;7.82;3.28;;;13.50;99.90;;;;;;5019684;28;20555;-80
2021/12/31 05:54:42;;;;;;;7.60;3.13;;;13.40;99.90;;;;;;5035803;28;20045;-80
2021/12/31 05:57:09;;;;;;;7.28;3.00;;;13.40;99.90;;;;;;5035081;28;20046;-80
2021/12/31 05:59:34;;;;;;;7.30;3.20;;;13.50;99.90;;;;;;5019192;28;20053;-80
2021/12/31 06:02:00;;;;;;;11.75;3.25;;;13.50;99.90;;;;;;5036327;28;20538;-81
2021/12/31 06:04:26;;;;;;;9.55;3.30;;;13.50;99.90;;;;;;5035435;28;20136;-80
2021/12/31 06:06:51;;;;;;;8.30;2.97;;;13.50;99.90;;;;;;5035285;28;20044;-80
2021/12/31 06:09:17;;;;;;;11.38;3.65;;;13.50;99.90;;;;;;5035377;28;20103;-81
2021/12/31 06:11:43;;;;;;;5.53;3.00;;;13.50;99.90;;;;;;5035177;28;20045;-81
2021/12/31 06:14:11;;;;;;;8.35;3.05;;;13.50;99.90;;;;;;5019181;28;20512;-80
2021/12/31 06:16:42;;;;;;;6.35;3.00;;;13.60;99.90;;;;;;5019162;28;20092;-80
2021/12/31 06:19:09;;;;;;;11.35;2.97;;;13.60;99.90;;;;;;5035145;28;20050;-80
2021/12/31 06:21:37;;;;;;;6.38;2.88;;;13.70;99.90;;;;;;5035324;28;20053;-80
2021/12/31 06:24:04;;;;;;;9.25;3.28;;;13.60;99.90;;;;;;5018942;28;20110;-80
2021/12/31 06:26:30;;;;;;;7.22;2.88;;;13.60;99.90;;;;;;5002433;28;20053;-80
2021/12/31 06:28:56;;;;;;;7.93;2.58;;;13.60;99.90;;;;;;5035430;28;20052;-80
2021/12/31 06:31:22;;;;;;;12.18;2.88;;;13.50;99.90;;;;;;5018735;28;20049;-81
2021/12/31 06:33:48;;;;;;;4.78;2.70;;;13.60;99.90;;;;;;5035789;28;20041;-80
2021/12/31 06:36:14;;;;;;;7.25;2.60;;;13.50;99.90;;;;;;5035478;28;20053;-80
2021/12/31 06:38:39;;;;;;;8.80;2.42;;;13.50;99.90;;;;;;5034593;28;20053;-81
2021/12/31 06:41:05;;;;;;;12.15;3.75;;;13.60;99.90;;;;;;5034983;28;20056;-81
2021/12/31 06:43:31;;;;;;;8.35;2.65;;;13.60;99.90;;;;;;5017964;28;20505;-80
2021/12/31 06:45:56;;;;;;;7.88;2.40;;;13.60;99.90;;;;;;5018531;28;20050;-80
2021/12/31 06:48:22;;;;;;;10.35;3.05;;;13.50;99.90;;;;;;5018291;28;20049;-80
2021/12/31 06:50:48;;;;;;;9.07;2.42;;;13.50;99.90;;;;;;5035208;28;20049;-80
2021/12/31 06:53:13;;;;;;;9.18;3.00;;;13.50;99.90;;;;;;5034418;28;20107;-80
2021/12/31 06:55:39;;;;;;;7.93;2.67;;;13.50;99.90;;;;;;5034963;28;20045;-80
2021/12/31 06:58:05;;;;;;;8.38;2.85;;;13.50;99.90;;;;;;5033892;28;20057;-80
2021/12/31 07:00:31;;;;;;;6.15;2.22;;;13.50;99.90;;;;;;5018519;28;20045;-80
2021/12/31 07:03:08;;;;;;;7.50;2.03;;;13.50;99.90;;;;;;5018372;28;20516;-80
2021/12/31 07:05:34;;;;;;;8.27;3.00;;;13.50;99.90;;;;;;5034448;28;20453;-81
2021/12/31 07:08:00;;;;;;;5.28;1.92;;;13.50;99.90;;;;;;5034325;28;20404;-80
2021/12/31 07:10:27;;;;;;;6.25;2.47;;;13.50;99.90;;;;;;5034323;28;20049;-80
2021/12/31 07:13:02;;;;;;;6.15;2.30;;;13.40;99.90;;;;;;5033669;28;20559;-80
2021/12/31 07:15:28;;;;;;;5.53;2.70;;;13.50;99.90;;;;;;5034304;28;20045;-80
2021/12/31 07:17:53;;;;;;;6.82;2.75;;;13.50;99.90;;;;;;5033889;28;20099;-80
2021/12/31 07:20:20;;;;;;;8.52;2.00;;;13.40;99.90;;;;;;5034052;28;20178;-80
2021/12/31 07:22:46;;;;;;;5.68;2.35;;;13.50;99.90;;;;;;5017656;28;20056;-80
2021/12/31 07:25:12;;;;;;;5.60;2.00;;;13.50;99.90;;;;;;5034102;28;20041;-80
2021/12/31 07:27:38;;;;;;;7.57;2.47;;;13.40;99.90;;;;;;5017564;28;20128;-80
2021/12/31 07:30:04;;;;;;;10.07;2.70;;;13.50;99.90;;;;;;5033974;28;20053;-80
2021/12/31 07:32:37;;;;;;;10.75;2.38;;;13.50;99.90;;;;;;5033966;28;20045;-80
2021/12/31 07:35:04;;;;;;;6.40;2.55;;;13.50;99.90;;;;;;5034100;28;20049;-80
2021/12/31 07:37:30;;;;;;;7.80;2.13;;;13.40;99.90;;;;;;5015842;28;20507;-80
2021/12/31 07:40:02;;;;;;;9.02;2.13;;;13.40;99.90;;;;;;5033769;28;20140;-80
2021/12/31 07:42:28;;;;;;;4.85;1.90;;;13.40;99.90;;;;;;5033761;28;20107;-80
2021/12/31 07:44:53;;;;;;;3.92;1.92;;;13.40;99.90;;;;;;5033657;28;20049;-80
2021/12/31 07:47:19;;;;;;;6.47;2.25;;;13.40;99.90;;;;;;5017401;28;20038;-80
2021/12/31 07:49:45;;;;;;;5.35;2.28;;;13.40;99.90;;;;;;5033768;28;20076;-80
2021/12/31 07:52:10;;;;;;;7.70;2.35;;;13.30;99.90;;;;;;5033237;28;20045;-80
2021/12/31 07:54:36;;;;;;;5.25;2.00;;;13.30;99.90;;;;;;5000173;28;20099;-81
2021/12/31 07:57:02;;;;;;;8.52;2.13;;;13.30;99.90;;;;;;5016304;28;20049;-80
2021/12/31 07:59:27;;;;;;;7.32;2.20;;;13.40;99.90;;;;;;5033459;28;20046;-81
2021/12/31 08:01:53;;;;;;;6.53;2.45;;;13.40;99.90;;;;;;5016970;28;20089;-80
2021/12/31 08:04:19;;;;;;;6.28;2.00;;;13.40;99.90;;;;;;5033350;28;20045;-80
2021/12/31 08:06:44;;;;;;;4.57;1.88;;;13.40;99.90;;;;;;5033039;28;20049;-80
2021/12/31 08:09:10;;;;;;;5.70;2.10;;;13.40;99.90;;;;;;5016778;28;20049;-80
2021/12/31 08:11:37;;;;;;;6.05;2.00;;;13.40;99.90;;;;;;5032680;28;20140;-81
2021/12/31 08:14:03;;;;;;;4.63;2.03;;;13.40;99.90;;;;;;5016656;28;20072;-80
2021/12/31 08:16:29;;;;;;;6.10;1.98;;;13.40;99.90;;;;;;5033498;28;20049;-80
2021/12/31 08:18:55;;;;;;;6.07;2.40;;;13.40;99.90;;;;;;5032855;28;20499;-80
2021/12/31 08:21:21;;;;;;;8.48;2.63;;;13.40;99.90;;;;;;5033115;28;20053;-80
2021/12/31 08:23:47;;;;;;;6.63;2.58;;;13.30;99.90;;;;;;5033198;28;20045;-80
2021/12/31 08:26:14;;;;;;;9.25;2.72;;;13.40;99.90;;;;;;5016992;28;20187;-80
2021/12/31 08:28:39;;;;;;;6.43;2.50;;;13.40;99.90;;;;;;5032866;28;20050;-80
2021/12/31 08:31:05;;;;;;;6.03;2.13;;;13.40;99.90;;;;;;5016565;28;20048;-80
2021/12/31 08:33:31;;;;;;;6.70;2.20;;;13.30;99.90;;;;;;5016652;28;20045;-80
2021/12/31 08:35:57;;;;;;;7.88;2.70;;;13.40;99.90;;;;;;5033686;28;20052;-81
2021/12/31 08:38:23;;;;;;;7.55;2.25;;;13.40;99.90;;;;;;5032648;28;20472;-80
2021/12/31 08:40:49;;;;;;;8.15;2.20;;;13.40;99.90;;;;;;5032851;28;20056;-81
2021/12/31 08:43:15;;;;;;;7.28;2.58;;;13.40;99.90;;;;;;5032396;28;20135;-81
2021/12/31 08:45:41;;;;;;;5.85;2.40;;;13.50;99.90;;;;;;5032892;28;20049;-81
2021/12/31 08:48:07;;;;;;;7.30;2.60;;;13.40;99.90;;;;;;5016058;28;20145;-80
2021/12/31 08:50:33;;;;;;;7.43;2.65;;;13.40;99.90;;;;;;5033063;28;20072;-78
2021/12/31 08:52:59;;;;;;;6.43;2.40;;;13.50;99.90;;;;;;5032802;28;20045;-76
2021/12/31 08:55:25;;;;;;;7.50;2.83;;;13.40;99.90;;;;;;5032664;28;20248;-73
2021/12/31 08:57:51;;;;;;;8.73;2.95;;;13.40;99.90;;;;;;5033411;28;20060;-74
2021/12/31 09:00:17;;;;;;;10.57;2.60;;;13.40;99.90;;;;;;5035968;28;20405;-72
2021/12/31 09:02:45;;;;;;;6.95;2.78;;;13.40;99.90;;;;;;5037321;28;20507;-75
2021/12/31 09:05:11;;;;;;;9.57;2.78;;;13.40;99.90;;;;;;5033523;28;20041;-75
2021/12/31 09:07:37;;;;;;;5.22;2.90;;;13.40;99.90;;;;;;5032537;28;20484;-75
2021/12/31 09:10:05;;;;;;;9.35;3.08;;;13.40;99.90;;;;;;5032470;28;20051;-74
2021/12/31 09:12:31;;;;;;;7.15;2.97;;;13.30;99.90;;;;;;5032112;28;20057;-73
2021/12/31 09:14:56;;;;;;;7.53;2.70;;;13.30;99.90;;;;;;5032422;28;20056;-76
2021/12/31 09:17:22;;;;;;;7.60;2.90;;;13.20;99.90;;;;;;5015943;28;20050;-76
2021/12/31 09:19:49;;;;;;;6.13;3.00;;;13.30;99.90;;;;;;5032274;28;20041;-76
2021/12/31 09:22:15;;;;;;;6.38;3.00;;;13.30;99.90;;;;;;5032476;28;20046;-73
2021/12/31 09:24:41;;;;;;;7.45;2.75;;;13.20;99.90;;;;;;5032346;28;20104;-75
2021/12/31 09:27:07;;;;;;;6.80;3.15;;;13.20;99.90;;;;;;5032828;28;20057;-75
2021/12/31 09:29:33;;;;;;;6.25;2.53;;;13.20;99.90;;;;;;5032227;28;20048;-74
2021/12/31 09:31:59;;;;;;;5.35;2.80;;;13.20;99.90;;;;;;5032280;28;20037;-75
2021/12/31 09:34:26;;;;;;;10.75;3.10;;;13.20;99.90;;;;;;5032861;28;20107;-75
2021/12/31 09:36:51;;;;;;;8.23;2.55;;;13.30;99.90;;;;;;5032432;28;20065;-77
2021/12/31 09:39:17;;;;;;;7.82;3.05;;;13.30;99.90;;;;;;5015900;28;20038;-75
2021/12/31 09:41:43;;;;;;;5.60;2.70;;;13.30;99.90;;;;;;5028229;28;20096;-76
2021/12/31 09:44:14;;;;;;;7.68;2.85;;;13.20;99.90;;;;;;5024427;28;20065;-77
2021/12/31 09:46:39;;;;;;;8.00;2.80;;;13.20;99.90;;;;;;5031752;28;20049;-75
2021/12/31 09:49:05;;;;;;;6.82;2.90;;;13.20;99.90;;;;;;5014286;28;20049;-75
2021/12/31 09:51:33;;;;;;;9.85;3.78;;;13.20;99.90;;;;;;5015162;28;20115;-76
2021/12/31 09:53:59;;;;;;;7.38;2.75;;;13.20;99.90;;;;;;5031766;28;20435;-76
2021/12/31 09:56:28;;;;;;;9.75;3.15;;;13.20;99.90;;;;;;5031727;28;20045;-76
2021/12/31 09:58:54;;;;;;;7.10;2.72;;;13.20;99.90;;;;;;5031625;28;20115;-76
2021/12/31 10:01:19;;;;;;;5.53;3.15;;;13.10;99.90;;;;;;5018695;28;20041;-76
2021/12/31 10:03:56;;;;;;;6.45;3.45;;;13.10;99.90;;;;;;5035644;28;20103;-76
2021/12/31 10:06:22;;;;;;;6.85;2.95;;;13.10;99.90;;;;;;5034989;28;20495;-74
2021/12/31 10:08:48;;;;;;;8.38;3.75;;;13.10;99.90;;;;;;5035077;28;20060;-74
2021/12/31 10:11:22;;;;;;;9.00;3.75;;;13.10;99.90;;;;;;5036399;28;20061;-74
2021/12/31 10:13:51;;;;;;;9.32;4.05;;;13.00;99.90;;;;;;5032585;28;20077;-75
2021/12/31 10:16:37;;;;;;;8.38;4.03;;;13.00;99.90;;;;;;5066441;28;20136;-75
2021/12/31 10:19:20;;;;;;;12.73;4.20;;;12.90;99.90;;;;;;5034308;28;20045;-73
2021/12/31 10:21:50;;;;;;;8.00;3.63;;;12.90;99.90;;;;;;5036247;28;20140;-74
2021/12/31 10:24:19;;;;;;;11.25;4.13;;;12.80;99.90;;;;;;5035906;28;20063;-73
2021/12/31 10:26:45;;;;;;;9.63;3.50;;;12.80;99.90;;;;;;5035230;28;20485;-73
2021/12/31 10:29:11;;;;;;;7.85;3.85;;;12.80;99.90;;;;;;5035173;28;20129;-73
2021/12/31 10:31:48;;;;;;;9.75;3.92;;;12.80;99.90;;;;;;5035466;28;20053;-73
2021/12/31 10:34:37;;;;;;;10.18;4.43;;;12.80;99.90;;;;;;5035492;28;20061;-73
2021/12/31 10:37:17;;;;;;;12.10;4.72;;;12.80;99.90;;;;;;5035056;28;20053;-73
2021/12/31 10:39:44;;;;;;;11.50;4.95;;;12.80;99.90;;;;;;5035572;28;20089;-74
2021/12/31 10:42:12;;;;;;;9.30;4.10;;;12.80;99.90;;;;;;5034887;28;20054;-73
2021/12/31 10:44:47;;;;;;;12.45;4.68;;;12.70;99.90;;;;;;5035886;28;20136;-73
2021/12/31 10:47:30;;;;;;;14.60;5.00;;;12.70;99.90;;;;;;5034810;28;20049;-73
2021/12/31 10:50:09;;;;;;;10.85;4.47;;;12.70;99.90;;;;;;5034088;28;20053;-74
2021/12/31 10:53:02;;;;;;;9.43;4.50;;;12.70;99.90;;;;;;5022200;28;20042;-74
2021/12/31 10:55:33;;;;;;;8.55;5.18;;;12.70;99.90;;;;;;5053093;28;20046;-74
2021/12/31 10:58:04;;;;;;;9.40;4.57;;;12.60;99.90;;;;;;5037703;28;20412;-74
2021/12/31 11:00:34;;;;;;;8.38;4.65;;;12.60;99.90;;;;;;5015645;28;20054;-74
2021/12/31 11:03:00;;;;;;;14.48;5.07;;;12.60;99.90;;;;;;5032890;28;20057;-74
2021/12/31 11:05:27;;;;;;;9.18;4.70;;;12.60;99.90;;;;;;5017725;28;20056;-74
2021/12/31 11:07:54;;;;;;;8.23;4.55;;;12.60;99.90;;;;;;5067609;28;20099;-74
2021/12/31 11:10:25;;;;;;;10.95;4.93;;;12.60;99.90;;;;;;5019954;28;20056;-74
2021/12/31 11:12:53;;;;;;;10.82;4.38;;;12.60;99.90;;;;;;5015041;28;20089;-73
2021/12/31 11:15:19;;;;;;;11.40;4.60;;;12.60;99.90;;;;;;5042373;28;20045;-74
2021/12/31 11:17:45;;;;;;;11.30;4.82;;;12.60;99.90;;;;;;5060540;28;20511;-74
2021/12/31 11:20:12;;;;;;;10.95;4.97;;;12.70;99.90;;;;;;5049978;28;20050;-73
2021/12/31 11:22:38;;;;;;;9.50;4.50;;;12.70;99.90;;;;;;5035217;28;20417;-73
2021/12/31 11:25:33;;;;;;;11.82;5.07;;;12.70;99.90;;;;;;5033906;28;20037;-74
2021/12/31 11:27:59;;;;;;;9.35;4.45;;;12.70;99.90;;;;;;5025269;28;20436;-74
2021/12/31 11:30:29;;;;;;;10.18;4.45;;;12.70;99.90;;;;;;5033754;28;20083;-73
2021/12/31 11:32:56;;;;;;;11.32;5.43;;;12.70;99.90;;;;;;5034943;28;20411;-73
2021/12/31 11:35:34;;;;;;;11.70;5.93;;;12.70;99.90;;;;;;5053607;28;20435;-73
2021/12/31 11:38:03;;;;;;;17.00;5.85;;;12.70;99.90;;;;;;5039276;28;20362;-73
2021/12/31 11:40:37;;;;;;;10.43;5.40;;;12.60;99.90;;;;;;5013931;28;20054;-74
2021/12/31 11:43:17;;;;;;;13.07;6.03;;;12.60;99.90;;;;;;4996856;28;20056;-73
2021/12/31 11:45:43;;;;;;;14.07;6.32;;;12.60;99.90;;;;;;5061818;28;20099;-73
2021/12/31 11:48:43;;;;;;;15.68;6.78;;;12.70;99.90;;;;;;5014819;28;20081;-74
2021/12/31 11:51:10;;;;;;;12.93;6.00;;;12.80;99.90;;;;;;4998503;28;20056;-73
2021/12/31 11:53:56;;;;;;;21.40;8.50;;;12.70;99.90;;;;;;5034703;28;20049;-77
2021/12/31 11:56:37;;;;;;;21.42;9.77;;;12.60;99.90;;;;;;5026154;28;20085;-73
2021/12/31 11:59:05;;;;;;;23.58;10.02;;;12.50;99.90;;;;;;5033345;28;20053;-74
2021/12/31 12:01:37;;;;;;;19.02;9.18;;;12.50;99.90;;;;;;5033455;28;20041;-73
2021/12/31 12:04:28;;;;;;;22.30;9.63;;;12.40;99.90;;;;;;5033416;28;20053;-74
2021/12/31 12:07:09;;;;;;;16.65;8.93;;;12.40;99.90;;;;;;5033836;28;20111;-73
2021/12/31 12:09:40;;;;;;;24.73;10.07;;;12.30;99.90;;;;;;5016996;28;20049;-76
2021/12/31 12:12:07;;;;;;;21.80;10.65;;;12.30;99.90;;;;;;5029341;28;20052;-76
2021/12/31 12:14:40;;;;;;;19.63;10.63;;;12.30;99.90;;;;;;5036348;28;20052;-76
2021/12/31 12:17:11;;;;;;;19.98;10.75;;;12.30;99.90;;;;;;5033143;28;20492;-76
2021/12/31 12:19:46;;;;;;;17.65;10.40;;;12.30;99.90;;;;;;5016144;28;20401;-74
2021/12/31 12:22:40;;;;;;;19.33;11.75;;;12.30;99.90;;;;;;5032514;28;20047;-73
2021/12/31 12:25:20;;;;;;;34.13;12.27;;;12.20;99.90;;;;;;5032900;28;20512;-74
2021/12/31 12:27:49;;;;;;;23.52;11.10;;;12.10;99.90;;;;;;5016341;28;20049;-74
2021/12/31 12:30:16;;;;;;;23.65;11.50;;;12.20;99.90;;;;;;5026127;28;20045;-75
2021/12/31 12:35:30;;;;;;;18.25;11.32;;;12.20;99.90;;;;;;5032755;28;20396;-75
2021/12/31 12:38:14;;;;;;;17.10;10.40;;;12.20;99.90;;;;;;5018369;28;20049;-74
2021/12/31 12:40:58;;;;;;;21.92;11.23;;;12.10;99.90;;;;;;5047718;28;20062;-78
2021/12/31 12:43:30;;;;;;;19.58;10.30;;;12.10;99.90;;;;;;5016522;28;20085;-74
2021/12/31 12:46:04;;;;;;;21.75;11.00;;;12.20;99.90;;;;;;5049234;28;20099;-74
2021/12/31 12:48:33;;;;;;;21.17;10.07;;;12.30;99.90;;;;;;5007220;28;20172;-74